createdAt,value
2022-10-23T00:01:32.751Z,0.50
2022-10-23T00:04:02.744Z,0.75
2022-10-23T00:06:32.358Z,0.35
2022-10-23T00:08:59.735Z,0.55
2022-10-23T00:11:28.636Z,0.47
2022-10-23T00:13:59.071Z,1.15
2022-10-23T00:16:27.126Z,0.40
2022-10-23T00:18:54.292Z,0.52
2022-10-23T00:21:21.425Z,0.50
2022-10-23T00:23:48.353Z,0.82
2022-10-23T00:26:15.875Z,0.50
2022-10-23T00:28:48.827Z,1.92
2022-10-23T00:31:16.238Z,0.73
2022-10-23T00:33:44.451Z,0.35
2022-10-23T00:36:13.524Z,0.70
2022-10-23T00:38:44.423Z,0.70
2022-10-23T00:41:20.426Z,0.70
2022-10-23T00:44:08.066Z,0.32
2022-10-23T00:46:36.960Z,0.50
2022-10-23T00:49:05.320Z,0.68
2022-10-23T00:51:57.169Z,0.50
2022-10-23T00:54:29.564Z,0.30
2022-10-23T00:57:01.496Z,0.43
2022-10-23T00:59:29.667Z,0.45
2022-10-23T01:01:56.953Z,0.68
2022-10-23T01:04:25.016Z,0.38
2022-10-23T01:07:03.652Z,0.50
2022-10-23T01:09:36.614Z,0.52
2022-10-23T01:12:19.016Z,0.47
2022-10-23T01:15:20.255Z,0.95
2022-10-23T01:18:26.635Z,1.42
2022-10-23T01:21:18.606Z,0.88
2022-10-23T01:23:51.027Z,0.90
2022-10-23T01:26:29.984Z,0.65
2022-10-23T01:29:08.777Z,0.75
2022-10-23T01:31:39.951Z,0.40
2022-10-23T01:34:15.076Z,0.32
2022-10-23T01:36:47.151Z,0.40
2022-10-23T01:39:21.248Z,0.30
2022-10-23T01:42:04.177Z,0.35
2022-10-23T01:44:46.811Z,0.40
2022-10-23T01:47:17.163Z,0.50
2022-10-23T01:49:56.132Z,3.10
2022-10-23T01:52:23.499Z,0.30
2022-10-23T01:54:56.159Z,0.77
2022-10-23T01:57:27.112Z,0.40
2022-10-23T01:59:59.999Z,0.17
2022-10-23T02:02:28.979Z,0.60
2022-10-23T02:05:10.678Z,0.65
2022-10-23T02:07:38.056Z,1.13
2022-10-23T02:10:08.267Z,0.55
2022-10-23T02:12:44.917Z,0.40
2022-10-23T02:15:33.495Z,0.70
2022-10-23T02:18:26.842Z,0.52
2022-10-23T02:21:18.265Z,0.80
2022-10-23T02:23:59.452Z,0.38
2022-10-23T02:26:40.822Z,0.68
2022-10-23T02:29:16.933Z,0.50
2022-10-23T02:31:45.891Z,0.45
2022-10-23T02:34:13.126Z,0.50
2022-10-23T02:36:41.108Z,0.50
2022-10-23T02:39:09.985Z,0.60
2022-10-23T02:42:14.426Z,0.60
2022-10-23T02:45:02.777Z,0.60
2022-10-23T02:47:53.369Z,0.50
2022-10-23T02:50:36.184Z,0.57
2022-10-23T02:53:29.970Z,0.30
2022-10-23T02:56:03.474Z,0.30
2022-10-23T02:59:07.890Z,0.50
2022-10-23T03:01:46.147Z,0.60
2022-10-23T03:04:16.117Z,0.40
2022-10-23T03:06:43.173Z,0.60
2022-10-23T03:09:15.736Z,0.52
2022-10-23T03:11:42.585Z,0.77
2022-10-23T03:14:11.772Z,0.30
2022-10-23T03:16:38.914Z,0.60
2022-10-23T03:19:05.945Z,0.57
2022-10-23T03:21:33.220Z,0.30
2022-10-23T03:24:01.808Z,0.38
2022-10-23T03:26:35.096Z,0.28
2022-10-23T03:29:02.153Z,0.40
2022-10-23T03:31:29.106Z,0.40
2022-10-23T03:34:00.499Z,0.40
2022-10-23T03:36:28.024Z,0.40
2022-10-23T03:38:55.170Z,0.63
2022-10-23T03:41:22.125Z,0.40
2022-10-23T03:43:49.267Z,0.30
2022-10-23T03:46:16.633Z,0.43
2022-10-23T03:48:43.662Z,0.30
2022-10-23T03:51:11.226Z,0.70
2022-10-23T03:53:40.819Z,0.57
2022-10-23T03:56:07.873Z,0.40
2022-10-23T03:58:34.821Z,0.50
2022-10-23T04:01:02.211Z,0.70
2022-10-23T04:03:29.304Z,0.60
2022-10-23T04:05:56.586Z,2.47
2022-10-23T04:08:23.952Z,0.60
2022-10-23T04:10:54.756Z,0.40
2022-10-23T04:13:31.445Z,0.40
2022-10-23T04:15:58.489Z,0.50
2022-10-23T04:20:52.587Z,0.40
2022-10-23T04:23:19.743Z,0.50
2022-10-23T04:28:24.043Z,0.30
2022-10-23T04:30:51.441Z,0.43
2022-10-23T04:33:18.778Z,0.57
2022-10-23T04:35:48.479Z,0.68
2022-10-23T04:38:16.677Z,0.50
2022-10-23T04:40:44.158Z,0.35
2022-10-23T04:43:11.190Z,0.70
2022-10-23T04:45:40.052Z,0.50
2022-10-23T04:48:07.000Z,0.20
2022-10-23T04:51:05.063Z,0.63
2022-10-23T04:53:54.668Z,0.40
2022-10-23T04:56:42.003Z,0.60
2022-10-23T04:59:13.957Z,0.50
2022-10-23T05:01:42.354Z,0.60
2022-10-23T05:04:10.096Z,0.60
2022-10-23T05:06:57.014Z,0.63
2022-10-23T05:09:56.504Z,0.40
2022-10-23T05:12:30.836Z,0.40
2022-10-23T05:17:34.756Z,0.47
2022-10-23T05:20:06.946Z,0.90
2022-10-23T05:22:37.469Z,0.43
2022-10-23T05:25:10.543Z,0.50
2022-10-23T05:27:37.486Z,0.55
2022-10-23T05:30:09.703Z,0.40
2022-10-23T05:32:38.777Z,0.47
2022-10-23T05:35:11.231Z,0.40
2022-10-23T05:37:41.849Z,0.45
2022-10-23T05:40:17.950Z,0.43
2022-10-23T05:42:46.080Z,0.40
2022-10-23T05:45:16.720Z,0.60
2022-10-23T05:48:10.910Z,0.50
2022-10-23T05:51:05.025Z,0.50
2022-10-23T05:53:49.580Z,0.68
2022-10-23T05:56:42.604Z,0.52
2022-10-23T05:59:32.490Z,0.60
2022-10-23T06:02:22.847Z,0.55
2022-10-23T06:04:56.163Z,0.38
2022-10-23T06:07:30.193Z,0.55
2022-10-23T06:10:00.617Z,0.40
2022-10-23T06:12:27.887Z,0.77
2022-10-23T06:14:54.929Z,0.50
2022-10-23T06:17:29.535Z,0.68
2022-10-23T06:20:02.586Z,0.70
2022-10-23T06:22:34.615Z,0.55
2022-10-23T06:25:15.478Z,0.68
2022-10-23T06:27:44.054Z,0.65
2022-10-23T06:30:12.410Z,0.50
2022-10-23T06:32:40.466Z,0.50
2022-10-23T06:35:12.073Z,0.40
2022-10-23T06:37:39.401Z,0.65
2022-10-23T06:40:11.590Z,0.80
2022-10-23T06:42:58.890Z,1.10
2022-10-23T06:45:56.377Z,1.35
2022-10-23T06:48:43.309Z,1.33
2022-10-23T06:51:18.045Z,0.70
2022-10-23T06:53:46.191Z,0.47
2022-10-23T06:59:01.380Z,0.82
2022-10-23T07:01:30.500Z,0.63
2022-10-23T07:03:57.727Z,0.80
2022-10-23T07:06:27.066Z,0.70
2022-10-23T07:08:54.216Z,0.77
2022-10-23T07:11:44.113Z,0.90
2022-10-23T07:14:11.609Z,0.50
2022-10-23T07:16:38.699Z,0.45
2022-10-23T07:19:07.023Z,0.60
2022-10-23T07:21:52.327Z,0.60
2022-10-23T07:24:32.211Z,1.17
2022-10-23T07:27:01.382Z,0.60
2022-10-23T07:29:30.340Z,1.40
2022-10-23T07:31:58.105Z,1.50
2022-10-23T07:34:45.667Z,1.40
2022-10-23T07:37:42.209Z,2.58
2022-10-23T07:40:09.765Z,1.17
2022-10-23T07:42:43.370Z,1.73
2022-10-23T07:45:11.321Z,1.60
2022-10-23T07:47:41.470Z,1.10
2022-10-23T07:50:09.734Z,1.38
2022-10-23T07:52:37.049Z,1.20
2022-10-23T07:55:11.077Z,1.17
2022-10-23T07:57:44.151Z,1.10
2022-10-23T08:02:56.672Z,1.10
2022-10-23T08:05:24.260Z,1.20
2022-10-23T08:07:57.730Z,1.25
2022-10-23T08:10:24.912Z,1.17
2022-10-23T08:12:52.350Z,1.52
2022-10-23T08:15:24.524Z,1.50
2022-10-23T08:17:57.013Z,1.73
2022-10-23T08:20:41.159Z,1.38
2022-10-23T08:23:10.285Z,1.70
2022-10-23T08:25:37.482Z,1.58
2022-10-23T08:28:06.319Z,1.15
2022-10-23T08:30:40.736Z,1.50
2022-10-23T08:33:08.020Z,1.90
2022-10-23T08:35:38.801Z,1.40
2022-10-23T08:38:07.481Z,1.30
2022-10-23T08:40:44.983Z,1.35
2022-10-23T08:43:48.078Z,1.25
2022-10-23T08:46:37.862Z,1.15
2022-10-23T08:49:38.184Z,1.10
2022-10-23T08:52:25.006Z,1.10
2022-10-23T08:54:58.498Z,1.15
2022-10-23T08:57:34.578Z,1.58
2022-10-23T09:00:08.468Z,1.25
2022-10-23T09:02:51.493Z,1.08
2022-10-23T09:05:37.144Z,1.02
2022-10-23T09:08:35.108Z,1.98
2022-10-23T09:11:03.839Z,3.67
2022-10-23T09:13:45.934Z,1.35
2022-10-23T09:16:34.391Z,1.35
2022-10-23T09:19:02.239Z,1.48
2022-10-23T09:21:29.922Z,1.13
2022-10-23T09:23:57.370Z,1.23
2022-10-23T09:26:24.641Z,1.70
2022-10-23T09:29:19.240Z,1.73
2022-10-23T09:31:57.444Z,1.02
2022-10-23T09:34:29.799Z,1.10
2022-10-23T09:37:00.192Z,1.35
2022-10-23T09:39:32.503Z,1.00
2022-10-23T09:42:02.428Z,1.45
2022-10-23T09:44:32.230Z,1.20
2022-10-23T09:47:06.558Z,1.25
2022-10-23T09:49:34.506Z,1.50
2022-10-23T09:52:03.932Z,1.58
2022-10-23T09:54:34.744Z,1.75
2022-10-23T09:57:25.253Z,1.40
2022-10-23T09:59:55.248Z,1.27
2022-10-23T10:02:33.761Z,2.33
2022-10-23T10:05:37.690Z,1.70
2022-10-23T10:08:24.533Z,9.90
2022-10-23T10:11:01.591Z,8.00
2022-10-23T10:13:36.534Z,2.00
2022-10-23T10:16:09.213Z,1.50
2022-10-23T10:18:45.251Z,0.77
2022-10-23T10:21:25.187Z,1.00
2022-10-23T10:24:21.128Z,1.40
2022-10-23T10:26:55.344Z,1.30
2022-10-23T10:29:30.065Z,1.38
2022-10-23T10:32:21.390Z,1.42
2022-10-23T10:35:08.200Z,1.40
2022-10-23T10:38:07.285Z,0.90
2022-10-23T10:40:40.390Z,1.10
2022-10-23T10:43:42.354Z,0.70
2022-10-23T10:46:32.642Z,1.00
2022-10-23T10:49:12.813Z,0.85
2022-10-23T10:52:15.907Z,0.75
2022-10-23T10:55:03.220Z,0.60
2022-10-23T10:57:34.554Z,1.45
2022-10-23T11:00:12.968Z,1.58
2022-10-23T11:02:53.754Z,0.93
2022-10-23T11:05:42.304Z,0.93
2022-10-23T11:08:18.151Z,1.08
2022-10-23T11:10:47.864Z,1.13
2022-10-23T11:13:35.406Z,0.82
2022-10-23T11:18:33.683Z,1.00
2022-10-23T11:21:25.774Z,0.80
2022-10-23T11:24:23.998Z,1.00
2022-10-23T11:30:00.283Z,1.13
2022-10-23T11:32:54.917Z,0.80
2022-10-23T11:35:33.808Z,0.80
2022-10-23T11:38:32.034Z,1.35
2022-10-23T11:41:16.339Z,0.95
2022-10-23T11:44:01.689Z,0.95
2022-10-23T11:46:35.262Z,1.25
2022-10-23T11:49:06.056Z,0.90
2022-10-23T11:51:37.415Z,0.82
2022-10-23T11:54:13.586Z,1.00
2022-10-23T11:57:17.252Z,1.10
2022-10-23T11:59:50.169Z,0.80
2022-10-23T12:02:32.883Z,1.02
2022-10-23T12:05:28.174Z,1.27
2022-10-23T12:07:58.004Z,0.93
2022-10-23T12:10:34.364Z,0.90
2022-10-23T12:13:04.575Z,1.27
2022-10-23T12:15:34.808Z,1.23
2022-10-23T12:18:16.508Z,2.22
2022-10-23T12:20:46.495Z,0.70
2022-10-23T12:23:28.610Z,1.38
2022-10-23T12:26:15.014Z,1.10
2022-10-23T12:29:10.942Z,1.30
2022-10-23T12:31:54.763Z,1.50
2022-10-23T12:34:35.637Z,1.20
2022-10-23T12:37:26.188Z,1.50
2022-10-23T12:39:55.778Z,1.38
2022-10-23T12:42:25.270Z,1.15
2022-10-23T12:45:33.169Z,1.20
2022-10-23T12:48:00.530Z,1.02
2022-10-23T12:50:30.246Z,0.90
2022-10-23T12:53:01.013Z,0.88
2022-10-23T12:55:58.226Z,0.93
2022-10-23T12:58:35.211Z,1.45
2022-10-23T13:01:06.624Z,2.22
2022-10-23T13:03:34.964Z,1.75
2022-10-23T13:06:03.509Z,1.23
2022-10-23T13:08:40.419Z,1.20
2022-10-23T13:11:28.042Z,1.38
2022-10-23T13:13:58.588Z,1.27
2022-10-23T13:16:27.034Z,0.93
2022-10-23T13:18:54.432Z,1.05
2022-10-23T13:21:29.108Z,1.35
2022-10-23T13:23:56.483Z,0.80
2022-10-23T13:26:44.856Z,1.30
2022-10-23T13:31:58.394Z,1.67
2022-10-23T13:34:27.981Z,2.17
2022-10-23T13:37:22.093Z,1.75
2022-10-23T13:40:04.475Z,2.00
2022-10-23T13:42:31.416Z,1.80
2022-10-23T13:44:58.296Z,1.20
2022-10-23T13:47:25.113Z,1.75
2022-10-23T13:49:51.915Z,1.85
2022-10-23T13:52:22.131Z,2.13
2022-10-23T13:54:50.028Z,1.52
2022-10-23T13:57:16.957Z,1.83
2022-10-23T13:59:43.972Z,1.38
2022-10-23T14:02:29.416Z,1.48
2022-10-23T14:04:56.318Z,1.80
2022-10-23T14:07:23.580Z,1.38
2022-10-23T14:09:50.704Z,1.30
2022-10-23T14:12:18.299Z,1.10
2022-10-23T14:14:45.092Z,1.10
2022-10-23T14:17:11.840Z,1.35
2022-10-23T14:19:38.868Z,1.30
2022-10-23T14:22:05.635Z,1.73
2022-10-23T14:24:32.543Z,1.60
2022-10-23T14:26:59.679Z,1.80
2022-10-23T14:29:26.390Z,2.25
2022-10-23T14:31:53.224Z,2.05
2022-10-23T14:34:20.037Z,2.20
2022-10-23T14:36:56.736Z,1.42
2022-10-23T14:39:30.790Z,1.95
2022-10-23T14:41:57.578Z,2.03
2022-10-23T14:44:24.423Z,1.52
2022-10-23T14:46:51.977Z,1.40
2022-10-23T14:49:18.933Z,1.30
2022-10-23T14:51:45.755Z,1.30
2022-10-23T14:54:12.620Z,1.10
2022-10-23T14:56:40.742Z,0.98
2022-10-23T14:59:09.269Z,0.95
2022-10-23T15:01:43.521Z,0.57
2022-10-23T15:04:14.664Z,1.80
2022-10-23T15:06:42.400Z,0.95
2022-10-23T15:09:09.377Z,0.90
2022-10-23T15:11:36.339Z,0.93
2022-10-23T15:14:03.103Z,0.70
2022-10-23T15:16:30.274Z,0.75
2022-10-23T15:18:57.507Z,0.93
2022-10-23T15:21:24.477Z,0.65
2022-10-23T15:23:51.283Z,0.73
2022-10-23T15:26:22.424Z,1.10
2022-10-23T15:28:56.795Z,0.70
2022-10-23T15:31:44.851Z,1.63
2022-10-23T15:34:15.042Z,0.85
2022-10-23T15:36:42.687Z,1.08
2022-10-23T15:39:11.017Z,0.90
2022-10-23T15:41:40.212Z,0.82
2022-10-23T15:44:08.315Z,1.25
2022-10-23T15:46:35.806Z,1.77
2022-10-23T15:49:02.624Z,1.50
2022-10-23T15:51:29.430Z,1.52
2022-10-23T15:53:57.078Z,2.22
2022-10-23T15:56:25.096Z,1.90
2022-10-23T15:58:52.198Z,2.35
2022-10-23T16:01:19.312Z,2.30
2022-10-23T16:03:46.875Z,2.25
2022-10-23T16:06:15.357Z,2.00
2022-10-23T16:08:43.874Z,1.80
2022-10-23T16:11:20.173Z,1.80
2022-10-23T16:13:47.638Z,1.65
2022-10-23T16:16:14.865Z,2.10
2022-10-23T16:18:43.600Z,1.77
2022-10-23T16:21:22.123Z,1.90
2022-10-23T16:23:50.166Z,2.00
2022-10-23T16:26:18.108Z,2.00
2022-10-23T16:28:47.227Z,1.63
2022-10-23T16:31:20.591Z,1.52
2022-10-23T16:33:48.595Z,1.73
2022-10-23T16:36:16.508Z,1.90
2022-10-23T16:39:19.629Z,2.17
2022-10-23T16:42:05.543Z,2.00
2022-10-23T16:45:01.862Z,1.92
2022-10-23T16:49:57.211Z,1.90
2022-10-23T16:52:25.006Z,1.90
2022-10-23T16:54:51.762Z,1.63
2022-10-23T16:59:45.311Z,1.85
2022-10-23T17:04:39.151Z,1.50
2022-10-23T17:09:33.071Z,1.60
2022-10-23T17:11:59.881Z,1.58
2022-10-23T17:17:04.114Z,1.40
2022-10-23T17:19:47.080Z,1.30
2022-10-23T17:22:15.025Z,1.45
2022-10-23T17:24:45.139Z,1.67
2022-10-23T17:27:14.429Z,1.40
2022-10-23T17:29:41.306Z,1.67
2022-10-23T17:32:08.344Z,1.20
2022-10-23T17:34:35.467Z,1.70
2022-10-23T17:37:02.448Z,1.10
2022-10-23T17:39:30.165Z,1.50
2022-10-23T17:41:57.455Z,1.60
2022-10-23T17:44:24.501Z,1.63
2022-10-23T17:46:53.491Z,1.52
2022-10-23T17:49:20.552Z,1.63
2022-10-23T17:51:57.262Z,1.63
2022-10-23T17:54:26.618Z,1.80
2022-10-23T17:56:53.483Z,1.75
2022-10-23T18:01:48.505Z,1.92
2022-10-23T18:04:17.832Z,3.08
2022-10-23T18:06:47.719Z,2.03
2022-10-23T18:09:14.880Z,2.40
2022-10-23T18:11:45.532Z,2.13
2022-10-23T18:14:15.941Z,2.80
2022-10-23T18:16:42.723Z,3.53
2022-10-23T18:21:38.017Z,2.60
2022-10-23T18:24:05.232Z,2.85
2022-10-23T18:26:35.326Z,2.75
2022-10-23T18:29:07.179Z,2.75
2022-10-23T18:31:35.425Z,2.97
2022-10-23T18:34:04.996Z,3.38
2022-10-23T18:36:36.758Z,3.70
2022-10-23T18:39:06.301Z,3.22
2022-10-23T18:41:38.303Z,4.40
2022-10-23T18:44:05.962Z,3.47
2022-10-23T18:46:32.957Z,3.00
2022-10-23T18:49:00.178Z,2.65
2022-10-23T18:51:32.953Z,2.85
2022-10-23T18:54:09.156Z,2.40
2022-10-23T18:56:36.243Z,3.35
2022-10-23T18:59:05.440Z,2.38
2022-10-23T19:01:33.684Z,2.25
2022-10-23T19:04:01.582Z,2.42
2022-10-23T19:06:29.663Z,1.67
2022-10-23T19:08:57.247Z,2.13
2022-10-23T19:11:26.239Z,2.58
2022-10-23T19:13:53.268Z,2.50
2022-10-23T19:16:27.503Z,2.28
2022-10-23T19:19:01.534Z,2.40
2022-10-23T19:21:32.026Z,2.90
2022-10-23T19:24:03.275Z,1.75
2022-10-23T19:26:31.364Z,2.83
2022-10-23T19:28:58.610Z,2.35
2022-10-23T19:31:26.788Z,3.00
2022-10-23T19:33:53.940Z,3.00
2022-10-23T19:36:23.469Z,2.63
2022-10-23T19:38:51.187Z,3.55
2022-10-23T19:41:18.784Z,3.15
2022-10-23T19:43:45.827Z,2.80
2022-10-23T19:46:12.820Z,2.38
2022-10-23T19:48:44.335Z,3.28
2022-10-23T19:51:13.132Z,3.15
2022-10-23T19:53:41.281Z,2.05
2022-10-23T19:56:10.171Z,2.30
2022-10-23T19:58:37.230Z,2.00
2022-10-23T20:01:19.561Z,2.20
2022-10-23T20:03:48.822Z,3.20
2022-10-23T20:06:29.075Z,3.38
2022-10-23T20:08:57.034Z,2.92
2022-10-23T20:11:30.547Z,2.35
2022-10-23T20:13:57.996Z,2.55
2022-10-23T20:16:27.500Z,3.03
2022-10-23T20:18:54.771Z,2.30
2022-10-23T20:21:21.990Z,2.30
2022-10-23T20:23:48.853Z,3.80
2022-10-23T20:28:47.144Z,3.85
2022-10-23T20:31:15.625Z,3.03
2022-10-23T20:33:43.230Z,5.18
2022-10-23T20:36:25.602Z,3.28
2022-10-23T20:38:52.891Z,5.25
2022-10-23T20:41:20.807Z,4.63
2022-10-23T20:43:47.577Z,3.70
2022-10-23T20:48:43.599Z,4.63
2022-10-23T20:51:13.931Z,4.05
2022-10-23T20:53:42.441Z,3.80
2022-10-23T20:56:31.163Z,3.42
2022-10-23T20:59:07.463Z,4.47
2022-10-23T21:01:35.280Z,4.68
2022-10-23T21:04:03.773Z,3.55
2022-10-23T21:06:46.172Z,5.00
2022-10-23T21:09:22.453Z,4.07
2022-10-23T21:11:49.402Z,3.90
2022-10-23T21:14:16.452Z,3.63
2022-10-23T21:16:46.357Z,5.53
2022-10-23T21:19:15.975Z,4.53
2022-10-23T21:21:43.844Z,4.22
2022-10-23T21:24:14.585Z,3.28
2022-10-23T21:26:41.720Z,4.07
2022-10-23T21:29:24.757Z,4.07
2022-10-23T21:31:57.218Z,5.80
2022-10-23T21:34:25.901Z,3.67
2022-10-23T21:37:11.856Z,3.42
2022-10-23T21:39:40.689Z,3.58
2022-10-23T21:42:08.150Z,3.63
2022-10-23T21:44:35.071Z,3.80
2022-10-23T21:47:02.039Z,4.03
2022-10-23T21:49:28.966Z,4.13
2022-10-23T21:51:55.922Z,3.28
2022-10-23T21:54:22.767Z,3.42
2022-10-23T21:56:51.538Z,3.38
2022-10-23T21:59:21.074Z,3.05
2022-10-23T22:01:49.144Z,2.95
2022-10-23T22:04:18.219Z,2.72
2022-10-23T22:06:47.009Z,3.42
2022-10-23T22:09:16.408Z,2.33
2022-10-23T22:11:43.363Z,2.83
2022-10-23T22:14:10.333Z,2.88
2022-10-23T22:16:37.271Z,2.35
2022-10-23T22:19:04.091Z,2.78
2022-10-23T22:21:31.561Z,2.63
2022-10-23T22:24:00.356Z,3.13
2022-10-23T22:26:38.778Z,3.40
2022-10-23T22:29:08.678Z,2.63
2022-10-23T22:31:36.603Z,2.45
2022-10-23T22:34:18.494Z,4.28
2022-10-23T22:36:53.580Z,4.10
2022-10-23T22:39:20.675Z,2.80
2022-10-23T22:41:47.770Z,3.55
2022-10-23T22:44:15.524Z,3.92
2022-10-23T22:46:42.787Z,4.05
2022-10-23T22:49:09.834Z,3.72
2022-10-23T22:51:37.998Z,3.60
2022-10-23T22:54:05.092Z,3.22
2022-10-23T22:56:32.009Z,3.38
2022-10-23T22:58:59.142Z,4.32
2022-10-23T23:01:36.894Z,3.42
2022-10-23T23:04:13.920Z,2.65
2022-10-23T23:06:51.225Z,2.53
2022-10-23T23:09:18.767Z,2.50
2022-10-23T23:11:51.660Z,2.83
2022-10-23T23:14:23.185Z,3.63
2022-10-23T23:16:52.621Z,1.85
2022-10-23T23:19:20.225Z,1.50
2022-10-23T23:21:47.793Z,2.30
2022-10-23T23:24:15.203Z,2.15
2022-10-23T23:26:42.572Z,2.35
2022-10-23T23:29:09.679Z,2.63
2022-10-23T23:31:36.671Z,2.45
2022-10-23T23:34:03.977Z,2.03
2022-10-23T23:36:31.268Z,2.15
2022-10-23T23:38:59.082Z,2.83
2022-10-23T23:41:27.816Z,2.00
2022-10-23T23:43:57.171Z,2.47
2022-10-23T23:46:24.768Z,2.30
2022-10-23T23:48:51.718Z,2.38
2022-10-23T23:51:21.100Z,2.80
2022-10-23T23:53:48.965Z,2.28
2022-10-23T23:56:16.563Z,2.20
2022-10-23T23:58:43.381Z,2.60
